createdAt,value
2018-07-10T00:00:05.590Z,76.14
2018-07-10T00:01:05.607Z,75.67
2018-07-10T00:02:05.572Z,75.56
2018-07-10T00:03:05.590Z,74.21
2018-07-10T00:04:05.555Z,75.12
2018-07-10T00:05:05.543Z,75.63
2018-07-10T00:06:05.530Z,75.63
2018-07-10T00:07:05.517Z,75.83
2018-07-10T00:08:05.573Z,74.82
2018-07-10T00:09:05.502Z,77.15
2018-07-10T00:10:05.487Z,75.63
2018-07-10T00:11:05.474Z,75.67
2018-07-10T00:12:05.467Z,76.03
2018-07-10T00:13:05.477Z,76.44
2018-07-10T00:14:05.448Z,75.93
2018-07-10T00:15:05.432Z,75.32
2018-07-10T00:16:05.423Z,76.54
2018-07-10T00:17:05.449Z,75.93
2018-07-10T00:18:05.403Z,76.14
2018-07-10T00:19:05.410Z,75.52
2018-07-10T00:20:05.374Z,76.14
2018-07-10T00:21:05.372Z,77.45
2018-07-10T00:22:05.356Z,77.56
2018-07-10T00:23:05.352Z,77.45
2018-07-10T00:24:05.376Z,76.44
2018-07-10T00:25:05.319Z,77.19
2018-07-10T00:26:05.313Z,77.05
2018-07-10T00:27:05.302Z,77.39
2018-07-10T00:28:05.295Z,76.88
2018-07-10T00:29:05.294Z,77.49
2018-07-10T00:30:05.273Z,78.41
2018-07-10T00:31:05.267Z,77.59
2018-07-10T00:32:05.246Z,77.80
2018-07-10T00:33:05.239Z,77.09
2018-07-10T00:34:05.227Z,77.49
2018-07-10T00:35:05.216Z,78.10
2018-07-10T00:36:05.200Z,77.29
2018-07-10T00:37:05.197Z,77.80
2018-07-10T00:38:05.186Z,77.49
2018-07-10T00:39:05.177Z,77.09
2018-07-10T00:40:05.183Z,75.87
2018-07-10T00:41:05.147Z,75.16
2018-07-10T00:42:05.138Z,75.87
2018-07-10T00:43:05.129Z,74.95
2018-07-10T00:44:05.120Z,74.85
2018-07-10T00:45:05.143Z,75.26
2018-07-10T00:46:05.097Z,75.36
2018-07-10T00:47:05.084Z,74.75
2018-07-10T00:48:05.075Z,74.65
2018-07-10T00:49:05.073Z,74.75
2018-07-10T00:50:05.098Z,75.05
2018-07-10T00:51:05.042Z,75.05
2018-07-10T00:52:05.034Z,74.04
2018-07-10T00:53:05.031Z,74.65
2018-07-10T00:54:05.010Z,74.24
2018-07-10T00:55:04.997Z,74.75
2018-07-10T00:56:04.994Z,75.05
2018-07-10T00:57:04.981Z,75.76
2018-07-10T00:58:04.968Z,75.29
2018-07-10T00:59:04.955Z,76.10
2018-07-10T01:00:04.954Z,77.19
2018-07-10T01:01:04.935Z,76.48
2018-07-10T01:02:04.921Z,76.58
2018-07-10T01:03:04.913Z,76.72
2018-07-10T01:04:04.903Z,76.51
2018-07-10T01:05:04.893Z,76.37
2018-07-10T01:06:04.904Z,76.98
2018-07-10T01:07:04.867Z,76.98
2018-07-10T01:08:04.862Z,76.21
2018-07-10T01:09:04.863Z,77.59
2018-07-10T01:10:04.841Z,76.48
2018-07-10T01:11:04.844Z,76.61
2018-07-10T01:12:04.818Z,77.12
2018-07-10T01:13:04.799Z,77.09
2018-07-10T01:14:04.790Z,77.59
2018-07-10T01:15:04.785Z,76.01
2018-07-10T01:16:04.801Z,75.67
2018-07-10T01:17:04.762Z,77.12
2018-07-10T01:18:04.753Z,76.78
2018-07-10T01:19:04.742Z,77.39
2018-07-10T01:20:04.726Z,77.09
2018-07-10T01:21:04.717Z,76.51
2018-07-10T01:22:04.707Z,76.48
2018-07-10T01:23:04.720Z,76.48
2018-07-10T01:24:04.685Z,76.61
2018-07-10T01:25:04.687Z,75.09
2018-07-10T01:26:04.666Z,75.40
2018-07-10T01:27:04.666Z,76.01
2018-07-10T01:28:04.639Z,76.10
2018-07-10T01:29:04.632Z,75.49
2018-07-10T01:30:04.623Z,75.90
2018-07-10T01:31:04.605Z,76.01
2018-07-10T01:32:04.619Z,75.40
2018-07-10T01:33:04.584Z,75.19
2018-07-10T01:34:04.582Z,75.40
2018-07-10T01:35:04.567Z,75.90
2018-07-10T01:36:04.557Z,75.90
2018-07-10T01:37:04.588Z,75.90
2018-07-10T01:38:04.553Z,76.01
2018-07-10T01:39:04.520Z,74.88
2018-07-10T01:40:04.526Z,75.40
2018-07-10T01:41:04.498Z,74.99
2018-07-10T01:42:04.527Z,74.48
2018-07-10T01:43:04.480Z,75.60
2018-07-10T01:44:04.472Z,75.40
2018-07-10T01:45:04.455Z,75.80
2018-07-10T01:46:04.452Z,75.80
2018-07-10T01:47:04.445Z,76.01
2018-07-10T01:48:04.426Z,74.68
2018-07-10T01:49:04.420Z,74.79
2018-07-10T01:50:04.405Z,74.99
2018-07-10T01:51:04.388Z,74.48
2018-07-10T01:52:04.379Z,74.28
2018-07-10T01:53:04.389Z,74.07
2018-07-10T01:54:04.355Z,74.18
2018-07-10T01:55:04.350Z,74.58
2018-07-10T01:56:04.341Z,75.70
2018-07-10T01:57:04.329Z,75.80
2018-07-10T01:58:04.347Z,75.70
2018-07-10T01:59:04.301Z,75.09
2018-07-10T02:00:04.305Z,75.49
2018-07-10T02:01:04.296Z,76.21
2018-07-10T02:02:04.276Z,77.43
2018-07-10T02:03:04.259Z,79.25
2018-07-10T02:04:04.254Z,78.44
2018-07-10T02:05:04.247Z,79.66
2018-07-10T02:06:04.234Z,81.02
2018-07-10T02:07:04.222Z,80.82
2018-07-10T02:08:04.211Z,81.37
2018-07-10T02:09:04.199Z,82.99
2018-07-10T02:10:04.188Z,83.91
2018-07-10T02:11:04.197Z,82.89
2018-07-10T02:12:04.189Z,84.86
2018-07-10T02:13:04.152Z,85.17
2018-07-10T02:14:04.204Z,84.39
2018-07-10T02:15:04.152Z,86.43
2018-07-10T02:16:04.129Z,86.43
2018-07-10T02:17:04.109Z,85.41
2018-07-10T02:18:04.101Z,86.33
2018-07-10T02:19:04.111Z,86.74
2018-07-10T02:20:04.081Z,86.16
2018-07-10T02:21:04.106Z,86.02
2018-07-10T02:22:04.064Z,85.05
2018-07-10T02:23:04.075Z,86.06
2018-07-10T02:24:04.064Z,86.68
2018-07-10T02:25:04.024Z,86.47
2018-07-10T02:26:04.011Z,85.35
2018-07-10T02:27:04.006Z,86.37
2018-07-10T02:28:03.993Z,85.14
2018-07-10T02:29:03.988Z,86.06
2018-07-10T02:30:03.977Z,85.14
2018-07-10T02:31:03.958Z,85.66
2018-07-10T02:32:03.965Z,86.27
2018-07-10T02:33:03.940Z,86.68
2018-07-10T02:34:03.930Z,87.18
2018-07-10T02:35:03.915Z,85.35
2018-07-10T02:36:03.905Z,86.68
2018-07-10T02:37:03.893Z,87.49
2018-07-10T02:38:03.892Z,87.38
2018-07-10T02:39:03.878Z,85.69
2018-07-10T02:40:03.866Z,86.61
2018-07-10T02:41:03.852Z,87.38
2018-07-10T02:42:03.843Z,86.37
2018-07-10T02:43:03.833Z,87.29
2018-07-10T02:44:03.820Z,87.29
2018-07-10T02:45:03.838Z,87.63
2018-07-10T02:46:03.793Z,87.38
2018-07-10T02:47:03.788Z,87.02
2018-07-10T02:48:03.780Z,87.49
2018-07-10T02:49:03.771Z,87.49
2018-07-10T02:50:03.778Z,87.38
2018-07-10T02:51:03.746Z,87.59
2018-07-10T02:52:03.734Z,87.59
2018-07-10T02:53:03.723Z,87.49
2018-07-10T02:54:03.713Z,88.10
2018-07-10T02:55:03.697Z,87.29
2018-07-10T02:56:03.690Z,87.38
2018-07-10T02:57:03.677Z,87.38
2018-07-10T02:58:03.665Z,86.68
2018-07-10T02:59:03.659Z,86.37
2018-07-10T03:00:03.669Z,86.16
2018-07-10T03:01:03.638Z,86.27
2018-07-10T03:02:03.632Z,84.74
2018-07-10T03:03:03.612Z,86.16
2018-07-10T03:04:03.605Z,84.23
2018-07-10T03:05:03.592Z,84.23
2018-07-10T03:06:03.591Z,83.72
2018-07-10T03:07:03.570Z,84.12
2018-07-10T03:08:03.557Z,84.94
2018-07-10T03:09:03.546Z,84.12
2018-07-10T03:10:03.553Z,84.84
2018-07-10T03:11:03.598Z,82.90
2018-07-10T03:12:03.542Z,85.14
2018-07-10T03:13:03.505Z,83.21
2018-07-10T03:14:03.499Z,83.21
2018-07-10T03:15:03.479Z,82.70
2018-07-10T03:16:03.492Z,82.80
2018-07-10T03:17:03.464Z,83.11
2018-07-10T03:18:03.447Z,82.70
2018-07-10T03:19:03.442Z,82.80
2018-07-10T03:20:03.431Z,83.01
2018-07-10T03:21:03.417Z,82.70
2018-07-10T03:22:03.408Z,83.11
2018-07-10T03:23:03.419Z,83.72
2018-07-10T03:24:03.387Z,82.40
2018-07-10T03:25:03.377Z,82.19
2018-07-10T03:26:03.369Z,82.40
2018-07-10T03:27:03.360Z,82.40
2018-07-10T03:28:03.341Z,82.90
2018-07-10T03:29:03.341Z,81.27
2018-07-10T03:30:03.317Z,81.79
2018-07-10T03:31:03.319Z,82.60
2018-07-10T03:32:03.357Z,82.29
2018-07-10T03:33:03.297Z,82.09
2018-07-10T03:34:03.279Z,82.19
2018-07-10T03:35:03.265Z,81.79
2018-07-10T03:36:03.257Z,81.88
2018-07-10T03:37:03.262Z,82.19
2018-07-10T03:38:03.236Z,81.79
2018-07-10T03:39:03.220Z,82.70
2018-07-10T03:40:03.216Z,82.09
2018-07-10T03:41:03.204Z,83.01
2018-07-10T03:42:03.220Z,82.60
2018-07-10T03:43:03.183Z,82.90
2018-07-10T03:44:03.182Z,84.23
2018-07-10T03:45:03.185Z,83.35
2018-07-10T03:46:03.205Z,83.04
2018-07-10T03:47:03.190Z,83.42
2018-07-10T03:48:03.127Z,82.94
2018-07-10T03:49:03.114Z,83.25
2018-07-10T03:50:03.102Z,83.15
2018-07-10T03:51:03.098Z,82.40
2018-07-10T03:52:03.120Z,80.97
2018-07-10T03:53:03.069Z,81.38
2018-07-10T03:54:03.058Z,81.38
2018-07-10T03:55:03.052Z,81.58
2018-07-10T03:56:03.045Z,80.46
2018-07-10T03:57:03.028Z,80.26
2018-07-10T03:58:03.024Z,80.97
2018-07-10T03:59:03.001Z,80.36
2018-07-10T04:00:03.010Z,80.56
2018-07-10T04:01:02.985Z,80.32
2018-07-10T04:02:02.977Z,79.64
2018-07-10T04:03:03.022Z,79.50
2018-07-10T04:04:02.952Z,79.85
2018-07-10T04:05:02.945Z,79.44
2018-07-10T04:06:02.935Z,79.64
2018-07-10T04:07:02.916Z,80.05
2018-07-10T04:08:02.942Z,79.44
2018-07-10T04:09:02.905Z,79.44
2018-07-10T04:10:02.889Z,79.48
2018-07-10T04:11:02.873Z,79.75
2018-07-10T04:12:02.865Z,80.16
2018-07-10T04:13:02.918Z,80.05
2018-07-10T04:14:02.842Z,79.34
2018-07-10T04:15:02.847Z,79.95
2018-07-10T04:16:02.823Z,79.95
2018-07-10T04:17:02.812Z,79.34
2018-07-10T04:18:02.805Z,79.71
2018-07-10T04:19:02.801Z,78.73
2018-07-10T04:20:02.776Z,78.83
2018-07-10T04:21:02.778Z,77.40
2018-07-10T04:22:02.753Z,78.22
2018-07-10T04:23:02.764Z,78.80
2018-07-10T04:24:02.750Z,78.73
2018-07-10T04:25:02.722Z,80.66
2018-07-10T04:26:02.709Z,80.26
2018-07-10T04:27:02.710Z,78.19
2018-07-10T04:28:02.694Z,79.61
2018-07-10T04:29:02.771Z,78.02
2018-07-10T04:30:02.701Z,77.71
2018-07-10T04:31:02.660Z,77.61
2018-07-10T04:32:02.663Z,77.57
2018-07-10T04:33:02.684Z,76.35
2018-07-10T04:34:02.647Z,77.37
2018-07-10T04:35:02.629Z,76.62
2018-07-10T04:36:02.606Z,76.72
2018-07-10T04:37:02.597Z,75.16
2018-07-10T04:38:02.599Z,75.87
2018-07-10T04:39:02.571Z,75.98
2018-07-10T04:40:02.561Z,75.53
2018-07-10T04:41:02.552Z,74.72
2018-07-10T04:42:02.549Z,75.84
2018-07-10T04:43:02.526Z,75.23
2018-07-10T04:44:02.535Z,75.53
2018-07-10T04:45:02.508Z,74.82
2018-07-10T04:46:02.493Z,77.16
2018-07-10T04:47:02.497Z,75.87
2018-07-10T04:48:02.489Z,78.41
2018-07-10T04:49:02.498Z,77.60
2018-07-10T04:50:02.458Z,76.48
2018-07-10T04:51:02.443Z,77.20
2018-07-10T04:52:02.442Z,77.60
2018-07-10T04:53:02.419Z,76.59
2018-07-10T04:54:02.409Z,77.91
2018-07-10T04:55:02.410Z,76.75
2018-07-10T04:56:02.394Z,75.73
2018-07-10T04:57:02.377Z,75.77
2018-07-10T04:58:02.366Z,75.87
2018-07-10T04:59:02.381Z,74.65
2018-07-10T05:00:02.353Z,75.98
2018-07-10T05:01:02.359Z,74.76
2018-07-10T05:02:02.325Z,75.87
2018-07-10T05:03:02.319Z,75.87
2018-07-10T05:04:02.299Z,76.11
2018-07-10T05:05:02.307Z,76.18
2018-07-10T05:06:02.287Z,77.64
2018-07-10T05:07:02.271Z,76.42
2018-07-10T05:08:02.266Z,75.98
2018-07-10T05:09:02.266Z,75.46
2018-07-10T05:10:02.279Z,75.77
2018-07-10T05:11:02.236Z,75.87
2018-07-10T05:12:02.236Z,75.67
2018-07-10T05:13:02.210Z,75.53
2018-07-10T05:14:02.198Z,74.31
2018-07-10T05:15:02.236Z,75.46
2018-07-10T05:16:02.230Z,75.02
2018-07-10T05:17:02.175Z,74.21
2018-07-10T05:18:02.183Z,75.63
2018-07-10T05:19:02.181Z,74.11
2018-07-10T05:20:02.136Z,73.94
2018-07-10T05:21:02.171Z,74.01
2018-07-10T05:22:02.109Z,75.73
2018-07-10T05:23:02.111Z,75.84
2018-07-10T05:24:02.090Z,74.82
2018-07-10T05:25:02.076Z,74.76
2018-07-10T05:26:02.100Z,75.84
2018-07-10T05:27:02.057Z,76.65
2018-07-10T05:28:02.046Z,74.96
2018-07-10T05:29:02.113Z,76.14
2018-07-10T05:30:02.029Z,75.02
2018-07-10T05:31:02.038Z,74.92
2018-07-10T05:32:02.004Z,74.21
2018-07-10T05:33:01.998Z,75.57
2018-07-10T05:34:01.987Z,75.77
2018-07-10T05:35:01.966Z,76.34
2018-07-10T05:36:01.981Z,76.48
2018-07-10T05:37:01.987Z,75.26
2018-07-10T05:38:01.948Z,75.87
2018-07-10T05:39:01.925Z,74.92
2018-07-10T05:40:01.917Z,76.65
2018-07-10T05:41:01.928Z,75.94
2018-07-10T05:42:01.899Z,76.34
2018-07-10T05:43:01.926Z,75.23
2018-07-10T05:44:01.869Z,75.94
2018-07-10T05:45:01.862Z,74.99
2018-07-10T05:46:01.884Z,75.53
2018-07-10T05:47:01.839Z,75.63
2018-07-10T05:48:01.833Z,74.01
2018-07-10T05:49:01.811Z,75.94
2018-07-10T05:50:01.805Z,76.65
2018-07-10T05:51:01.798Z,76.14
2018-07-10T05:52:01.793Z,75.12
2018-07-10T05:53:01.795Z,77.06
2018-07-10T05:54:01.763Z,75.84
2018-07-10T05:55:01.749Z,74.48
2018-07-10T05:56:01.751Z,74.38
2018-07-10T05:57:01.751Z,74.18
2018-07-10T05:58:01.725Z,74.24
2018-07-10T05:59:01.725Z,73.94
2018-07-10T06:00:01.701Z,73.94
2018-07-10T06:01:01.696Z,73.02
2018-07-10T06:02:01.675Z,72.99
2018-07-10T06:03:01.667Z,73.53
2018-07-10T06:04:01.656Z,73.09
2018-07-10T06:05:01.664Z,72.89
2018-07-10T06:06:01.639Z,74.17
2018-07-10T06:07:01.650Z,72.34
2018-07-10T06:08:01.608Z,72.45
2018-07-10T06:09:01.601Z,71.50
2018-07-10T06:10:01.585Z,73.63
2018-07-10T06:11:01.580Z,71.16
2018-07-10T06:12:01.597Z,72.08
2018-07-10T06:13:01.560Z,70.05
2018-07-10T06:14:01.604Z,69.64
2018-07-10T06:15:01.537Z,71.16
2018-07-10T06:16:01.521Z,68.63
2018-07-10T06:17:01.522Z,69.81
2018-07-10T06:18:01.511Z,68.19
2018-07-10T06:19:01.509Z,69.20
2018-07-10T06:20:01.480Z,69.51
2018-07-10T06:21:01.466Z,67.28
2018-07-10T06:22:01.459Z,69.41
2018-07-10T06:23:01.454Z,69.27
2018-07-10T06:24:01.444Z,67.58
2018-07-10T06:25:01.433Z,69.41
2018-07-10T06:26:01.423Z,69.51
2018-07-10T06:27:01.413Z,68.63
2018-07-10T06:28:01.410Z,68.63
2018-07-10T06:29:01.383Z,70.96
2018-07-10T06:30:01.384Z,69.13
2018-07-10T06:31:01.363Z,69.03
2018-07-10T06:32:01.356Z,69.34
2018-07-10T06:33:01.356Z,69.13
2018-07-10T06:34:01.328Z,68.63
2018-07-10T06:35:01.321Z,68.52
2018-07-10T06:36:01.328Z,68.63
2018-07-10T06:37:01.301Z,68.83
2018-07-10T06:38:01.307Z,69.41
2018-07-10T06:39:01.286Z,69.00
2018-07-10T06:40:01.281Z,69.31
2018-07-10T06:41:01.251Z,67.89
2018-07-10T06:42:01.244Z,68.29
2018-07-10T06:43:01.264Z,68.09
2018-07-10T06:44:01.226Z,67.58
2018-07-10T06:45:01.219Z,68.26
2018-07-10T06:46:01.201Z,68.36
2018-07-10T06:47:01.187Z,67.05
2018-07-10T06:48:01.187Z,68.06
2018-07-10T06:49:01.188Z,67.45
2018-07-10T06:50:01.171Z,67.62
2018-07-10T06:51:01.154Z,68.02
2018-07-10T06:52:01.155Z,68.02
2018-07-10T06:53:01.463Z,67.62
2018-07-10T06:54:01.118Z,67.82
2018-07-10T06:55:01.101Z,66.61
2018-07-10T06:56:01.093Z,65.90
2018-07-10T06:57:01.094Z,67.76
2018-07-10T06:58:01.068Z,67.65
2018-07-10T06:59:01.056Z,67.38
2018-07-10T07:00:01.041Z,68.70
2018-07-10T07:01:01.063Z,68.60
2018-07-10T07:02:01.040Z,69.00
2018-07-10T07:03:01.020Z,68.06
2018-07-10T07:04:01.005Z,68.26
2018-07-10T07:05:00.987Z,68.46
2018-07-10T07:06:00.977Z,68.26
2018-07-10T07:07:00.974Z,68.66
2018-07-10T07:08:01.063Z,69.57
2018-07-10T07:09:00.959Z,69.31
2018-07-10T07:10:00.957Z,68.29
2018-07-10T07:11:00.925Z,68.40
2018-07-10T07:12:00.910Z,69.41
2018-07-10T07:13:00.895Z,69.81
2018-07-10T07:14:00.890Z,68.63
2018-07-10T07:15:00.884Z,68.43
2018-07-10T07:16:00.888Z,68.80
2018-07-10T07:17:00.860Z,69.44
2018-07-10T07:18:00.846Z,68.60
2018-07-10T07:19:00.839Z,69.03
2018-07-10T07:20:00.850Z,69.34
2018-07-10T07:21:00.824Z,69.54
2018-07-10T07:22:00.809Z,69.54
2018-07-10T07:23:00.789Z,70.96
2018-07-10T07:24:00.799Z,70.35
2018-07-10T07:25:00.765Z,70.76
2018-07-10T07:26:00.768Z,69.44
2018-07-10T07:27:00.749Z,69.74
2018-07-10T07:28:00.751Z,69.64
2018-07-10T07:29:00.760Z,70.08
2018-07-10T07:30:00.753Z,69.78
2018-07-10T07:31:00.713Z,70.48
2018-07-10T07:32:00.693Z,70.39
2018-07-10T07:33:00.681Z,70.59
2018-07-10T07:34:00.701Z,71.40
2018-07-10T07:35:00.804Z,71.50
2018-07-10T07:36:00.657Z,72.01
2018-07-10T07:37:00.660Z,71.20
2018-07-10T07:38:00.632Z,71.40
2018-07-10T07:39:00.637Z,70.69
2018-07-10T07:40:00.637Z,71.60
2018-07-10T07:41:00.627Z,72.01
2018-07-10T07:42:00.591Z,71.47
2018-07-10T07:43:00.590Z,71.80
2018-07-10T07:44:00.796Z,70.86
2018-07-10T07:45:00.565Z,71.16
2018-07-10T07:46:00.544Z,70.86
2018-07-10T07:47:00.540Z,70.62
2018-07-10T07:48:00.527Z,69.71
2018-07-10T07:49:00.654Z,69.81
2018-07-10T07:50:00.533Z,70.32
2018-07-10T07:51:00.489Z,69.78
2018-07-10T07:52:00.476Z,69.98
2018-07-10T07:53:00.478Z,68.66
2018-07-10T07:54:00.460Z,69.57
2018-07-10T07:55:00.478Z,69.57
2018-07-10T07:56:00.436Z,69.61
2018-07-10T07:57:00.422Z,69.81
2018-07-10T07:58:00.416Z,70.12
2018-07-10T07:59:00.412Z,71.30
2018-07-10T08:00:00.435Z,70.83
2018-07-10T08:01:00.386Z,71.84
2018-07-10T08:02:00.392Z,71.94
2018-07-10T08:03:00.371Z,72.89
2018-07-10T08:04:00.381Z,73.09
2018-07-10T08:05:00.364Z,73.63
2018-07-10T08:06:00.337Z,73.93
2018-07-10T08:07:00.321Z,74.04
2018-07-10T08:08:00.324Z,76.78
2018-07-10T08:09:00.292Z,76.27
2018-07-10T08:10:00.303Z,77.48
2018-07-10T08:11:00.275Z,78.53
2018-07-10T08:12:00.273Z,79.65
2018-07-10T08:13:00.265Z,79.38
2018-07-10T08:14:00.268Z,80.50
2018-07-10T08:15:00.293Z,80.74
2018-07-10T08:16:00.245Z,83.28
2018-07-10T08:17:00.209Z,81.76
2018-07-10T08:18:00.220Z,84.91
2018-07-10T08:19:00.190Z,83.42
2018-07-10T08:20:00.183Z,85.25
2018-07-10T08:21:00.184Z,85.55
2018-07-10T08:22:00.159Z,86.16
2018-07-10T08:23:00.166Z,86.31
2018-07-10T08:24:00.190Z,86.10
2018-07-10T08:25:00.161Z,86.92
2018-07-10T08:26:00.184Z,87.53
2018-07-10T08:27:00.105Z,87.12
2018-07-10T08:28:00.090Z,86.10
2018-07-10T08:29:00.080Z,87.26
2018-07-10T08:30:00.079Z,89.09
2018-07-10T08:31:00.073Z,89.50
2018-07-10T08:32:00.052Z,89.40
2018-07-10T08:33:00.041Z,89.85
2018-07-10T08:34:00.087Z,90.05
2018-07-10T08:35:00.018Z,90.97
2018-07-10T08:36:00.010Z,91.38
2018-07-10T08:36:59.998Z,89.79
2018-07-10T08:37:59.983Z,90.20
2018-07-10T08:38:59.973Z,91.01
2018-07-10T08:39:59.961Z,90.91
2018-07-10T08:40:59.957Z,92.13
2018-07-10T08:41:59.941Z,92.40
2018-07-10T08:42:59.934Z,93.45
2018-07-10T08:43:59.922Z,93.86
2018-07-10T08:44:59.961Z,94.63
2018-07-10T08:45:59.914Z,94.32
2018-07-10T08:46:59.884Z,93.31
2018-07-10T08:47:59.873Z,93.31
2018-07-10T08:48:59.865Z,92.23
2018-07-10T08:49:59.862Z,92.23
2018-07-10T08:50:59.877Z,93.45
2018-07-10T08:51:59.837Z,92.64
2018-07-10T08:52:59.825Z,92.84
2018-07-10T08:53:59.814Z,92.84
2018-07-10T08:54:59.797Z,92.84
2018-07-10T08:55:59.815Z,93.71
2018-07-10T08:56:59.783Z,92.13
2018-07-10T08:57:59.771Z,92.54
2018-07-10T08:58:59.759Z,93.41
2018-07-10T08:59:59.751Z,92.29
2018-07-10T09:00:59.756Z,92.80
2018-07-10T09:01:59.729Z,93.41
2018-07-10T09:02:59.732Z,93.57
2018-07-10T09:03:59.736Z,92.76
2018-07-10T09:04:59.701Z,92.41
2018-07-10T09:05:59.682Z,92.00
2018-07-10T09:06:59.695Z,91.39
2018-07-10T09:07:59.689Z,90.83
2018-07-10T09:08:59.666Z,92.25
2018-07-10T09:09:59.639Z,92.76
2018-07-10T09:10:59.631Z,93.37
2018-07-10T09:11:59.648Z,93.98
2018-07-10T09:12:59.604Z,92.45
2018-07-10T09:13:59.624Z,93.31
2018-07-10T09:14:59.584Z,93.51
2018-07-10T09:15:59.592Z,93.41
2018-07-10T09:16:59.572Z,94.32
2018-07-10T09:17:59.552Z,93.55
2018-07-10T09:18:59.541Z,95.18
2018-07-10T09:19:59.524Z,94.57
2018-07-10T09:20:59.520Z,94.21
2018-07-10T09:21:59.533Z,94.82
2018-07-10T09:22:59.502Z,95.03
2018-07-10T09:23:59.488Z,95.33
2018-07-10T09:24:59.487Z,94.31
2018-07-10T09:25:59.465Z,95.78
2018-07-10T09:26:59.477Z,95.43
2018-07-10T09:27:59.477Z,95.53
2018-07-10T09:28:59.452Z,95.43
2018-07-10T09:29:59.419Z,95.94
2018-07-10T09:30:59.419Z,95.74
2018-07-10T09:31:59.473Z,95.74
2018-07-10T09:32:59.390Z,95.33
2018-07-10T09:33:59.379Z,95.53
2018-07-10T09:34:59.369Z,94.92
2018-07-10T09:35:59.359Z,96.09
2018-07-10T09:36:59.355Z,96.09
2018-07-10T09:37:59.381Z,95.37
2018-07-10T09:38:59.320Z,94.15
2018-07-10T09:39:59.330Z,94.66
2018-07-10T09:40:59.305Z,95.07
2018-07-10T09:41:59.301Z,94.72
2018-07-10T09:42:59.293Z,95.84
2018-07-10T09:43:59.325Z,96.04
2018-07-10T09:44:59.258Z,95.49
2018-07-10T09:45:59.257Z,93.35
2018-07-10T09:46:59.246Z,93.25
2018-07-10T09:47:59.285Z,94.27
2018-07-10T09:48:59.257Z,93.35
2018-07-10T09:49:59.228Z,93.86
2018-07-10T09:50:59.189Z,94.57
2018-07-10T09:51:59.178Z,94.42
2018-07-10T09:52:59.205Z,95.64
2018-07-10T09:53:59.168Z,95.33
2018-07-10T09:54:59.356Z,95.64
2018-07-10T09:55:59.154Z,95.48
2018-07-10T09:56:59.156Z,95.84
2018-07-10T09:57:59.146Z,95.68
2018-07-10T09:58:59.122Z,96.60
2018-07-10T09:59:59.131Z,96.66
2018-07-10T10:00:59.084Z,96.45
2018-07-10T10:01:59.151Z,96.39
2018-07-10T10:02:59.058Z,96.45
2018-07-10T10:03:59.054Z,95.33
2018-07-10T10:04:59.066Z,95.74
2018-07-10T10:05:59.051Z,96.25
2018-07-10T10:06:59.053Z,95.64
2018-07-10T10:07:59.014Z,96.10
2018-07-10T10:08:59.018Z,95.90
2018-07-10T10:09:59.033Z,95.45
2018-07-10T10:10:58.972Z,95.14
2018-07-10T10:11:58.960Z,96.42
2018-07-10T10:12:58.958Z,95.45
2018-07-10T10:13:58.965Z,95.24
2018-07-10T10:14:58.946Z,96.06
2018-07-10T10:15:58.920Z,96.01
2018-07-10T10:16:58.910Z,96.01
2018-07-10T10:17:58.912Z,96.31
2018-07-10T10:18:58.899Z,95.61
2018-07-10T10:19:58.888Z,94.79
2018-07-10T10:20:58.874Z,94.89
2018-07-10T10:21:58.855Z,95.46
2018-07-10T10:22:58.854Z,95.56
2018-07-10T10:23:58.833Z,93.43
2018-07-10T10:24:58.829Z,95.20
2018-07-10T10:25:58.816Z,95.09
2018-07-10T10:26:58.809Z,94.48
2018-07-10T10:27:58.795Z,94.28
2018-07-10T10:28:58.785Z,95.70
2018-07-10T10:29:58.775Z,96.11
2018-07-10T10:30:58.754Z,95.20
2018-07-10T10:31:58.751Z,94.18
2018-07-10T10:32:58.744Z,95.25
2018-07-10T10:33:58.737Z,94.44
2018-07-10T10:34:58.713Z,93.93
2018-07-10T10:35:58.700Z,94.64
2018-07-10T10:36:58.695Z,94.64
2018-07-10T10:37:58.699Z,94.13
2018-07-10T10:38:58.685Z,93.43
2018-07-10T10:39:58.665Z,93.93
2018-07-10T10:40:58.651Z,93.47
2018-07-10T10:41:58.645Z,93.57
2018-07-10T10:42:58.658Z,94.63
2018-07-10T10:43:58.639Z,93.31
2018-07-10T10:44:58.630Z,94.84
2018-07-10T10:45:58.642Z,94.28
2018-07-10T10:46:58.589Z,94.04
2018-07-10T10:47:58.570Z,94.74
2018-07-10T10:48:58.589Z,91.90
2018-07-10T10:49:58.554Z,92.91
2018-07-10T10:50:58.557Z,93.43
2018-07-10T10:51:58.569Z,93.63
2018-07-10T10:52:58.521Z,93.43
2018-07-10T10:53:58.508Z,93.32
2018-07-10T10:54:58.529Z,93.52
2018-07-10T10:55:58.488Z,91.90
2018-07-10T10:56:58.495Z,92.77
2018-07-10T10:57:58.465Z,92.47
2018-07-10T10:58:58.459Z,91.35
2018-07-10T10:59:58.453Z,91.35
2018-07-10T11:00:58.464Z,90.84
2018-07-10T11:01:58.424Z,91.96
2018-07-10T11:02:58.409Z,92.26
2018-07-10T11:03:58.405Z,92.61
2018-07-10T11:04:58.398Z,93.22
2018-07-10T11:05:58.380Z,92.10
2018-07-10T11:06:58.368Z,91.80
2018-07-10T11:07:58.359Z,92.51
2018-07-10T11:08:58.346Z,92.51
2018-07-10T11:09:58.359Z,92.47
2018-07-10T11:10:58.338Z,93.28
2018-07-10T11:11:58.344Z,93.79
2018-07-10T11:12:58.385Z,94.09
2018-07-10T11:13:58.293Z,93.28
2018-07-10T11:14:58.361Z,92.83
2018-07-10T11:15:58.268Z,92.42
2018-07-10T11:16:58.262Z,91.91
2018-07-10T11:17:58.253Z,91.87
2018-07-10T11:18:58.248Z,90.77
2018-07-10T11:19:58.272Z,89.15
2018-07-10T11:20:58.218Z,89.45
2018-07-10T11:21:58.210Z,89.70
2018-07-10T11:22:58.203Z,90.61
2018-07-10T11:23:58.195Z,89.70
2018-07-10T11:24:58.175Z,90.00
2018-07-10T11:25:58.169Z,90.55
2018-07-10T11:26:58.149Z,92.44
2018-07-10T11:27:58.152Z,88.68
2018-07-10T11:28:58.131Z,89.70
2018-07-10T11:29:58.139Z,90.96
2018-07-10T11:30:58.440Z,89.43
2018-07-10T11:31:58.118Z,90.71
2018-07-10T11:32:58.131Z,88.62
2018-07-10T11:33:58.114Z,90.75
2018-07-10T11:34:58.060Z,88.68
2018-07-10T11:35:58.142Z,89.09
2018-07-10T11:36:58.050Z,91.08
2018-07-10T11:37:58.057Z,89.86
2018-07-10T11:38:58.019Z,88.38
2018-07-10T11:39:58.012Z,90.71
2018-07-10T11:40:58.019Z,90.11
2018-07-10T11:41:57.998Z,87.81
2018-07-10T11:42:57.988Z,89.78
2018-07-10T11:43:57.971Z,90.80
2018-07-10T11:44:57.957Z,89.48
2018-07-10T11:45:57.978Z,90.80
2018-07-10T11:46:57.936Z,89.58
2018-07-10T11:47:57.926Z,89.52
2018-07-10T11:48:57.934Z,90.53
2018-07-10T11:49:57.903Z,90.84
2018-07-10T11:50:57.896Z,90.78
2018-07-10T11:51:57.882Z,91.39
2018-07-10T11:52:57.877Z,91.90
2018-07-10T11:53:57.896Z,91.90
2018-07-10T11:54:57.882Z,92.55
2018-07-10T11:55:57.845Z,94.08
2018-07-10T11:56:57.843Z,95.00
2018-07-10T11:57:57.813Z,95.40
2018-07-10T11:58:57.806Z,95.20
2018-07-10T11:59:57.798Z,95.70
2018-07-10T12:00:57.790Z,94.89
2018-07-10T12:01:57.856Z,93.77
2018-07-10T12:02:57.774Z,94.59
2018-07-10T12:03:57.787Z,94.18
2018-07-10T12:04:57.871Z,95.30
2018-07-10T12:05:57.794Z,94.38
2018-07-10T12:06:57.737Z,95.40
2018-07-10T12:07:57.713Z,96.01
2018-07-10T12:08:57.697Z,95.81
2018-07-10T12:09:57.686Z,94.79
2018-07-10T12:10:57.674Z,95.20
2018-07-10T12:11:57.693Z,95.61
2018-07-10T12:12:57.652Z,95.70
2018-07-10T12:13:58.417Z,96.01
2018-07-10T12:14:57.665Z,95.61
2018-07-10T12:15:57.657Z,95.54
2018-07-10T12:16:57.613Z,95.24
2018-07-10T12:17:57.614Z,95.70
2018-07-10T12:18:57.607Z,95.34
2018-07-10T12:19:57.576Z,95.61
2018-07-10T12:20:57.572Z,95.81
2018-07-10T12:21:57.556Z,95.40
2018-07-10T12:22:57.556Z,96.17
2018-07-10T12:23:57.531Z,95.97
2018-07-10T12:24:57.525Z,95.46
2018-07-10T12:25:57.520Z,95.01
2018-07-10T12:26:57.505Z,94.60
2018-07-10T12:27:57.575Z,92.57
2018-07-10T12:28:57.485Z,93.24
2018-07-10T12:29:57.476Z,94.15
2018-07-10T12:30:57.466Z,93.64
2018-07-10T12:31:57.447Z,92.47
2018-07-10T12:32:57.456Z,92.97
2018-07-10T12:33:57.438Z,93.07
2018-07-10T12:34:57.461Z,92.77
2018-07-10T12:35:57.413Z,94.13
2018-07-10T12:36:57.424Z,93.48
2018-07-10T12:37:57.400Z,92.16
2018-07-10T12:38:57.370Z,93.18
2018-07-10T12:39:57.364Z,93.28
2018-07-10T12:40:57.350Z,93.99
2018-07-10T12:41:57.337Z,95.21
2018-07-10T12:42:57.367Z,93.03
2018-07-10T12:43:57.313Z,95.01
2018-07-10T12:44:57.308Z,93.59
2018-07-10T12:45:57.295Z,94.29
2018-07-10T12:46:57.287Z,95.15
2018-07-10T12:47:57.280Z,95.66
2018-07-10T12:48:57.280Z,95.25
2018-07-10T12:49:57.250Z,95.36
2018-07-10T12:50:57.241Z,95.61
2018-07-10T12:51:57.228Z,95.97